OPA Logo
 

ASOS: KRDM
At:2018.08.20 2356 UTC
Wind:330° @ 10KT
Viz: 2 mile(s)
Sky: overcast
Temp: haze; smoke
DewP: 82.0 F (27.8 C)
RH: 41.0 F (5.0 C)
Baro: 41.0 F (5.0 C)
ob: KRDM 202356Z 33010KT 2SM HZ FU OVC034 28/05 A3002 RMK AO2 SLP141 T02780050 10278 20233 56010
Apache-SSL Logo

Valid HTML 4.01!

Central Oregon OPA Chapter

Upcoming Fly Outs


2004

June

12 Bend, OR - Flying Festival - Bend Airport

Other Fly-Out pages

Oregon Pilots Association Events Calendar

Washington Pilots Association Events

Past Fly Outs


Caldwell, ID and the Kitfox factory February 2002

XMAS Party 2001

Pasco, WA November 2001

Bend Airport Open House 2001

Flyout May 2001 to Flying M Ranch

Flyout April 2001 to Tillamook Air Museum


Web page by: gem@rellim.com